Time;durP1;ratioP1;P1;durP2;ratioP2;P2;SDS_P1;SDS_P2;PMS_P1;PMS_P2;Temp;Humidity;BMP_temperature;BMP_pressure;BME280_temperature;BME280_humidity;BME280_pressure;Samples;Min_cycle;Max_cycle;Signal;HPM_P1;HPM_P2
2022/09/18 00:01:06;;;;;;;2.53;0.60;;;17.40;51.00;;;;;;5096585;28;20426;-78
2022/09/18 00:03:33;;;;;;;2.63;0.70;;;17.50;51.10;;;;;;5078471;28;20024;-79
2022/09/18 00:06:09;;;;;;;1.50;0.60;;;17.60;50.70;;;;;;5061932;28;20060;-79
2022/09/18 00:08:37;;;;;;;2.10;0.77;;;17.50;50.20;;;;;;5097039;28;20016;-79
2022/09/18 00:11:07;;;;;;;3.03;0.82;;;17.50;50.20;;;;;;5079346;28;20394;-79
2022/09/18 00:13:38;;;;;;;4.35;0.80;;;17.50;50.00;;;;;;5079179;28;20032;-80
2022/09/18 00:16:06;;;;;;;4.07;1.20;;;17.50;51.00;;;;;;5096688;28;20426;-80
2022/09/18 00:18:36;;;;;;;2.90;0.93;;;17.60;50.90;;;;;;5096399;28;20099;-80
2022/09/18 00:21:10;;;;;;;4.13;1.27;;;17.60;50.00;;;;;;5096301;28;20111;-79
2022/09/18 00:23:40;;;;;;;2.10;0.88;;;17.50;50.60;;;;;;5096291;28;20031;-79
2022/09/18 00:26:09;;;;;;;1.98;0.90;;;17.60;50.70;;;;;;5096636;28;20094;-78
2022/09/18 00:28:38;;;;;;;6.32;1.17;;;17.50;50.40;;;;;;5096583;28;20017;-76
2022/09/18 00:31:05;;;;;;;2.28;0.75;;;17.50;50.30;;;;;;5096175;28;20103;-77
2022/09/18 00:33:32;;;;;;;4.78;0.80;;;17.50;50.40;;;;;;5095823;28;20086;-80
2022/09/18 00:36:04;;;;;;;4.30;0.75;;;17.50;50.60;;;;;;5095839;28;20059;-80
2022/09/18 00:38:31;;;;;;;1.65;0.60;;;17.50;50.60;;;;;;5077338;28;20050;-79
2022/09/18 00:41:00;;;;;;;2.15;0.95;;;17.50;50.40;;;;;;5096082;28;20488;-78
2022/09/18 00:43:31;;;;;;;1.60;0.55;;;17.40;50.20;;;;;;5094968;28;20051;-79
2022/09/18 00:46:08;;;;;;;2.08;0.80;;;17.40;50.50;;;;;;5095532;28;20071;-78
2022/09/18 00:48:46;;;;;;;2.58;0.77;;;17.40;50.00;;;;;;5095866;28;20093;-78
2022/09/18 00:51:13;;;;;;;1.85;0.70;;;17.40;50.40;;;;;;5095763;28;20066;-77
2022/09/18 00:53:42;;;;;;;4.35;0.90;;;17.30;50.70;;;;;;5095415;28;20051;-78
2022/09/18 00:56:13;;;;;;;2.53;0.68;;;17.30;50.70;;;;;;5077195;28;20012;-78
2022/09/18 00:58:41;;;;;;;3.20;0.82;;;17.20;50.70;;;;;;5095491;28;20488;-79
2022/09/18 01:01:07;;;;;;;2.88;1.00;;;17.20;50.80;;;;;;5095022;28;20099;-77
2022/09/18 01:03:37;;;;;;;1.67;0.75;;;17.00;51.00;;;;;;5077561;28;20028;-75
2022/09/18 01:06:15;;;;;;;3.28;1.17;;;17.00;51.00;;;;;;5095064;28;20104;-73
2022/09/18 01:09:09;;;;;;;2.10;0.82;;;17.00;50.60;;;;;;5095310;28;20111;-77
2022/09/18 01:11:53;;;;;;;2.35;0.77;;;16.90;50.30;;;;;;5095231;28;20016;-75
2022/09/18 01:14:21;;;;;;;2.27;0.73;;;17.00;50.10;;;;;;5095229;28;20036;-75
2022/09/18 01:17:12;;;;;;;5.28;0.68;;;16.90;50.80;;;;;;5095045;28;20073;-75
2022/09/18 01:19:40;;;;;;;2.83;0.90;;;17.00;50.80;;;;;;5095016;28;20032;-77
2022/09/18 01:22:24;;;;;;;3.35;1.00;;;17.00;51.10;;;;;;5095088;28;20020;-75
2022/09/18 01:25:08;;;;;;;2.65;0.80;;;17.00;51.40;;;;;;5076092;28;20033;-75
2022/09/18 01:27:51;;;;;;;2.95;0.95;;;16.90;51.20;;;;;;5095409;28;20056;-75
2022/09/18 01:30:17;;;;;;;1.73;0.60;;;16.90;51.60;;;;;;5095132;28;20400;-75
2022/09/18 01:32:52;;;;;;;4.35;0.77;;;16.70;51.40;;;;;;5076723;28;20473;-77
2022/09/18 01:35:38;;;;;;;2.28;0.70;;;16.70;51.40;;;;;;5094567;28;20027;-76
2022/09/18 01:38:43;;;;;;;2.45;0.90;;;16.70;51.80;;;;;;5094838;28;20027;-74
2022/09/18 01:41:10;;;;;;;;;;;16.60;51.90;;;;;;5095114;28;20043;-73
2022/09/18 01:43:39;;;;;;;4.38;1.05;;;16.50;51.80;;;;;;5094274;28;19904;-75
2022/09/18 01:46:12;;;;;;;3.72;1.00;;;16.50;51.90;;;;;;5094276;28;20025;-79
2022/09/18 01:49:01;;;;;;;2.88;1.00;;;16.60;52.10;;;;;;5094357;28;20028;-76
2022/09/18 01:51:38;;;;;;;2.80;0.82;;;16.50;51.60;;;;;;5076773;28;20055;-77
2022/09/18 01:54:14;;;;;;;5.00;0.80;;;16.40;51.60;;;;;;5076746;28;20032;-80
2022/09/18 01:56:54;;;;;;;2.42;0.77;;;16.50;51.70;;;;;;5076604;28;20048;-80
2022/09/18 01:59:38;;;;;;;1.35;0.70;;;16.40;52.50;;;;;;5076005;28;20115;-79
2022/09/18 02:02:12;;;;;;;4.03;0.70;;;16.40;52.00;;;;;;5094079;28;20020;-77
2022/09/18 02:04:41;;;;;;;3.70;0.90;;;16.40;51.60;;;;;;5094220;28;20039;-76
2022/09/18 02:07:39;;;;;;;2.45;0.80;;;16.30;51.90;;;;;;5094134;28;20036;-80
2022/09/18 02:10:07;;;;;;;1.40;0.80;;;16.30;51.40;;;;;;5038911;28;20044;-76
2022/09/18 02:12:35;;;;;;;2.08;0.68;;;16.40;51.40;;;;;;5093176;28;20045;-80
2022/09/18 02:15:08;;;;;;;1.73;0.80;;;16.40;51.50;;;;;;5093857;28;20129;-77
2022/09/18 02:17:50;;;;;;;3.05;0.82;;;16.40;51.30;;;;;;5074999;28;20036;-79
2022/09/18 02:20:37;;;;;;;1.42;0.55;;;16.40;51.20;;;;;;5093960;28;20522;-78
2022/09/18 02:23:06;;;;;;;2.08;0.63;;;16.50;51.50;;;;;;5093827;28;20028;-78
2022/09/18 02:25:48;;;;;;;3.08;0.50;;;16.50;51.40;;;;;;5093659;28;20507;-78
2022/09/18 02:28:18;;;;;;;1.80;0.63;;;16.50;51.50;;;;;;5093791;28;20558;-79
2022/09/18 02:30:44;;;;;;;1.48;0.52;;;16.50;51.60;;;;;;5093748;28;20033;-76
2022/09/18 02:33:32;;;;;;;5.93;1.00;;;16.60;51.50;;;;;;5075956;28;20667;-79
2022/09/18 02:36:24;;;;;;;1.63;0.55;;;16.60;51.00;;;;;;5095642;28;20073;-79
2022/09/18 02:38:58;;;;;;;2.20;0.80;;;16.60;51.00;;;;;;5097008;28;20431;-81
2022/09/18 02:42:09;;;;;;;2.28;0.73;;;16.60;51.00;;;;;;5096068;28;20434;-77
2022/09/18 02:44:59;;;;;;;2.70;0.70;;;16.50;51.00;;;;;;5046523;28;20024;-81
2022/09/18 02:47:47;;;;;;;3.13;0.90;;;16.50;50.80;;;;;;5093901;28;20024;-80
2022/09/18 02:50:33;;;;;;;2.03;0.70;;;16.50;50.60;;;;;;5093847;28;20052;-76
2022/09/18 02:53:23;;;;;;;4.25;0.90;;;16.50;51.00;;;;;;5093919;28;20032;-79
2022/09/18 02:56:13;;;;;;;1.50;0.60;;;16.40;50.90;;;;;;5095018;28;20027;-76
2022/09/18 02:58:57;;;;;;;2.25;0.80;;;16.40;51.20;;;;;;5081655;28;20047;-76
2022/09/18 03:01:25;;;;;;;;;;;16.40;50.90;;;;;;5096685;28;20020;-78
2022/09/18 03:03:52;;;;;;;3.85;0.85;;;16.40;50.40;;;;;;5075369;28;20373;-76
2022/09/18 03:06:18;;;;;;;1.58;0.80;;;16.40;50.60;;;;;;5092965;28;20235;-74
2022/09/18 03:08:45;;;;;;;1.25;0.60;;;16.40;50.60;;;;;;5093138;28;20067;-76
2022/09/18 03:11:12;;;;;;;3.08;0.80;;;16.40;50.70;;;;;;5093079;28;20024;-77
2022/09/18 03:13:37;;;;;;;1.40;0.60;;;16.40;50.70;;;;;;5075274;28;20035;-78
2022/09/18 03:16:03;;;;;;;1.52;0.80;;;16.40;50.60;;;;;;5093165;28;20427;-78
2022/09/18 03:18:29;;;;;;;1.08;0.55;;;16.40;50.50;;;;;;5075029;28;20028;-76
2022/09/18 03:20:54;;;;;;;5.85;0.82;;;16.30;50.40;;;;;;5075602;28;20031;-76
2022/09/18 03:23:22;;;;;;;2.67;0.60;;;16.30;50.60;;;;;;5092618;28;20069;-76
2022/09/18 03:25:49;;;;;;;2.78;0.63;;;16.30;50.70;;;;;;5092683;28;20430;-78
2022/09/18 03:28:15;;;;;;;1.02;0.68;;;16.30;50.60;;;;;;5074951;28;20107;-76
2022/09/18 03:30:42;;;;;;;3.80;0.75;;;16.40;50.60;;;;;;5074941;28;20024;-74
2022/09/18 03:33:08;;;;;;;4.65;0.80;;;16.40;50.60;;;;;;5074668;28;20039;-78
2022/09/18 03:35:33;;;;;;;1.25;0.70;;;16.40;50.60;;;;;;5074591;28;20016;-72
2022/09/18 03:38:02;;;;;;;3.30;0.65;;;16.30;50.60;;;;;;5092715;28;20145;-74
2022/09/18 03:40:29;;;;;;;1.38;0.65;;;16.30;50.50;;;;;;5092725;28;20373;-76
2022/09/18 03:42:55;;;;;;;2.22;0.65;;;16.40;51.40;;;;;;5074780;28;20031;-76
2022/09/18 03:45:20;;;;;;;4.28;0.85;;;16.40;50.10;;;;;;5092764;28;20028;-75
2022/09/18 03:47:47;;;;;;;2.13;0.73;;;16.40;50.30;;;;;;5074767;28;20028;-75
2022/09/18 03:50:13;;;;;;;1.90;0.60;;;16.40;50.50;;;;;;5092839;28;20068;-78
2022/09/18 03:52:39;;;;;;;1.38;0.80;;;16.50;50.50;;;;;;5093174;28;20088;-76
2022/09/18 03:55:07;;;;;;;0.93;0.50;;;16.50;50.40;;;;;;5093134;28;20028;-78
2022/09/18 03:57:32;;;;;;;2.13;0.63;;;16.50;50.40;;;;;;5093516;28;20480;-76
2022/09/18 03:59:59;;;;;;;2.42;0.82;;;16.50;50.20;;;;;;5074817;28;20030;-78
2022/09/18 04:02:26;;;;;;;3.72;0.70;;;16.50;50.00;;;;;;5093157;28;20089;-79
2022/09/18 04:04:53;;;;;;;1.05;0.57;;;16.40;49.90;;;;;;5092443;28;20024;-79
2022/09/18 04:07:19;;;;;;;2.20;0.70;;;16.40;49.90;;;;;;5093773;28;20082;-77
2022/09/18 04:09:45;;;;;;;2.53;0.57;;;16.40;50.00;;;;;;5093885;28;20027;-77
2022/09/18 04:12:12;;;;;;;1.95;0.70;;;16.40;49.90;;;;;;5092671;28;20032;-78
2022/09/18 04:14:39;;;;;;;1.77;0.65;;;16.40;49.40;;;;;;5092396;28;20496;-74
2022/09/18 04:17:07;;;;;;;3.70;0.60;;;16.40;49.20;;;;;;5074779;28;20032;-75
2022/09/18 04:19:33;;;;;;;2.35;0.60;;;16.40;48.80;;;;;;5074303;28;20024;-77
2022/09/18 04:21:59;;;;;;;0.95;0.50;;;16.50;49.40;;;;;;5092249;28;20021;-77
2022/09/18 04:24:24;;;;;;;1.58;0.73;;;16.50;49.30;;;;;;5092326;28;20020;-79
2022/09/18 04:26:50;;;;;;;3.03;0.63;;;16.50;49.50;;;;;;5092406;28;20024;-73
2022/09/18 04:29:16;;;;;;;3.60;0.70;;;16.60;49.70;;;;;;5074183;28;20016;-74
2022/09/18 04:31:43;;;;;;;1.50;0.60;;;16.60;48.80;;;;;;5092564;28;20024;-76
2022/09/18 04:34:08;;;;;;;1.40;0.80;;;16.60;48.90;;;;;;5073984;28;20071;-74
2022/09/18 04:36:35;;;;;;;2.53;0.77;;;16.50;49.20;;;;;;5076213;28;20066;-78
2022/09/18 04:39:00;;;;;;;2.17;0.75;;;16.50;49.00;;;;;;5096884;28;20020;-78
2022/09/18 04:41:29;;;;;;;2.45;0.88;;;16.50;49.10;;;;;;5096009;28;20032;-80
2022/09/18 04:43:54;;;;;;;2.38;0.60;;;16.40;48.80;;;;;;5060261;28;20047;-80
2022/09/18 04:46:20;;;;;;;2.95;1.10;;;16.40;49.50;;;;;;5095836;28;20131;-76
2022/09/18 04:48:47;;;;;;;3.33;0.90;;;16.30;49.50;;;;;;5095609;28;20028;-80
2022/09/18 04:51:14;;;;;;;1.27;0.70;;;16.40;49.80;;;;;;5095477;28;20465;-79
2022/09/18 04:53:42;;;;;;;2.30;0.88;;;16.30;49.70;;;;;;5077273;28;20055;-79
2022/09/18 04:56:08;;;;;;;6.25;1.02;;;16.30;49.70;;;;;;5077839;28;20111;-76
2022/09/18 04:58:33;;;;;;;2.25;0.80;;;16.20;50.10;;;;;;5095607;28;20575;-78
2022/09/18 05:01:00;;;;;;;3.30;0.73;;;16.20;50.10;;;;;;5095405;28;20089;-75
2022/09/18 05:03:26;;;;;;;1.45;0.70;;;16.20;50.10;;;;;;5077342;28;20389;-77
2022/09/18 05:05:53;;;;;;;1.15;0.52;;;16.20;50.80;;;;;;5095006;28;20055;-77
2022/09/18 05:08:20;;;;;;;3.13;0.90;;;16.20;50.50;;;;;;5095121;28;20024;-75
2022/09/18 05:10:46;;;;;;;2.33;0.88;;;16.10;50.50;;;;;;5095237;28;20020;-76
2022/09/18 05:13:11;;;;;;;3.60;1.13;;;16.00;50.40;;;;;;5095044;28;20089;-75
2022/09/18 05:15:37;;;;;;;4.40;1.27;;;16.00;50.60;;;;;;5076986;28;20496;-76
2022/09/18 05:18:05;;;;;;;2.22;0.90;;;16.00;51.10;;;;;;5094981;28;20028;-75
2022/09/18 05:20:34;;;;;;;4.75;1.10;;;16.00;50.90;;;;;;5095080;28;20095;-77
2022/09/18 05:23:00;;;;;;;3.30;1.20;;;16.00;51.20;;;;;;5077139;28;20385;-73
2022/09/18 05:25:29;;;;;;;3.08;1.20;;;16.10;51.40;;;;;;5094858;28;20507;-73
2022/09/18 05:28:01;;;;;;;4.15;1.50;;;16.20;51.70;;;;;;5095047;28;20085;-74
2022/09/18 05:30:30;;;;;;;3.67;1.05;;;16.20;51.70;;;;;;5077059;28;20059;-78
2022/09/18 05:32:58;;;;;;;4.05;1.10;;;16.30;51.60;;;;;;5077298;28;20526;-78
2022/09/18 05:35:26;;;;;;;3.83;1.08;;;16.30;51.40;;;;;;5094569;28;20469;-80
2022/09/18 05:37:55;;;;;;;3.28;1.20;;;16.30;51.70;;;;;;5076653;28;20090;-77
2022/09/18 05:40:23;;;;;;;2.30;1.10;;;16.40;51.80;;;;;;5094752;28;20039;-79
2022/09/18 05:42:51;;;;;;;2.10;1.05;;;16.40;51.50;;;;;;5095377;28;20384;-78
2022/09/18 05:45:18;;;;;;;4.78;1.00;;;16.40;51.60;;;;;;5095433;28;20093;-77
2022/09/18 05:48:12;;;;;;;2.53;0.93;;;16.30;51.10;;;;;;5094811;28;20103;-75
2022/09/18 05:50:41;;;;;;;4.72;1.50;;;16.30;51.00;;;;;;5093215;28;20102;-79
2022/09/18 05:53:19;;;;;;;2.97;0.90;;;16.20;51.00;;;;;;5094693;28;20028;-80
2022/09/18 05:55:45;;;;;;;4.05;1.15;;;16.30;51.50;;;;;;5094890;28;20031;-82
2022/09/18 05:58:16;;;;;;;3.85;1.15;;;16.50;51.30;;;;;;5095441;28;20073;-78
2022/09/18 06:00:45;;;;;;;2.33;1.05;;;16.50;51.20;;;;;;5095809;28;20020;-79
2022/09/18 06:03:28;;;;;;;2.85;1.17;;;16.70;51.00;;;;;;5093733;28;20043;-80
2022/09/18 06:05:54;;;;;;;4.00;1.38;;;17.00;50.80;;;;;;5093985;28;20052;-80
2022/09/18 06:08:21;;;;;;;5.70;1.25;;;17.10;50.60;;;;;;5094300;28;20030;-78
2022/09/18 06:10:47;;;;;;;5.82;1.10;;;17.20;50.30;;;;;;5093917;28;20031;-77
2022/09/18 06:13:15;;;;;;;2.47;1.15;;;17.30;50.20;;;;;;5093388;28;20069;-76
2022/09/18 06:16:03;;;;;;;2.60;1.20;;;17.40;49.90;;;;;;5093495;28;20444;-75
2022/09/18 06:18:28;;;;;;;6.68;1.17;;;17.50;49.30;;;;;;5091907;28;20434;-76
2022/09/18 06:20:57;;;;;;;2.13;1.00;;;17.70;50.10;;;;;;5093331;28;20027;-78
2022/09/18 06:23:29;;;;;;;4.32;1.50;;;17.80;49.50;;;;;;5075185;28;20362;-75
2022/09/18 06:26:00;;;;;;;3.17;1.27;;;17.90;48.10;;;;;;5093410;28;20540;-78
2022/09/18 06:28:29;;;;;;;4.28;1.50;;;17.90;48.00;;;;;;5093247;28;20058;-76
2022/09/18 06:30:56;;;;;;;5.75;1.60;;;17.80;48.70;;;;;;5075201;28;20031;-76
2022/09/18 06:33:22;;;;;;;4.82;2.58;;;17.90;49.20;;;;;;5074922;28;20111;-76
2022/09/18 06:35:51;;;;;;;3.50;1.70;;;18.10;48.50;;;;;;5093008;28;20137;-77
2022/09/18 06:38:17;;;;;;;4.07;1.33;;;18.20;47.40;;;;;;5074923;28;20028;-76
2022/09/18 06:40:54;;;;;;;5.85;1.55;;;18.40;48.30;;;;;;5074999;28;20026;-76
2022/09/18 06:43:21;;;;;;;3.30;1.40;;;18.50;47.10;;;;;;5093234;28;20414;-73
2022/09/18 06:45:54;;;;;;;4.78;1.42;;;18.50;47.70;;;;;;5093237;28;20060;-77
2022/09/18 06:48:20;;;;;;;4.95;1.05;;;18.60;46.80;;;;;;5092863;28;20024;-77
2022/09/18 06:50:56;;;;;;;2.40;0.77;;;18.70;47.70;;;;;;5093117;28;20032;-74
2022/09/18 06:53:24;;;;;;;2.47;0.73;;;18.70;46.60;;;;;;5072123;28;20545;-75
2022/09/18 06:55:50;;;;;;;4.72;0.82;;;18.80;47.50;;;;;;5092931;28;20066;-74
2022/09/18 06:58:18;;;;;;;2.33;0.80;;;18.90;48.30;;;;;;5074601;28;20421;-76
2022/09/18 07:00:46;;;;;;;3.13;0.80;;;19.00;47.60;;;;;;5092951;28;20016;-74
2022/09/18 07:03:13;;;;;;;2.58;0.90;;;19.00;46.30;;;;;;5093125;28;20027;-76
2022/09/18 07:05:44;;;;;;;3.17;0.80;;;19.00;45.90;;;;;;5074296;28;20066;-75
2022/09/18 07:08:11;;;;;;;4.82;0.90;;;19.00;47.10;;;;;;5092939;28;20024;-76
2022/09/18 07:10:38;;;;;;;2.22;0.80;;;19.10;46.50;;;;;;5092916;28;20055;-75
2022/09/18 07:13:04;;;;;;;2.70;1.08;;;19.00;46.70;;;;;;5074712;28;20093;-73
2022/09/18 07:15:31;;;;;;;1.38;0.80;;;19.00;46.50;;;;;;5091979;28;20043;-78
2022/09/18 07:18:01;;;;;;;1.85;0.90;;;19.10;46.60;;;;;;5093601;28;20069;-76
2022/09/18 07:20:28;;;;;;;2.17;0.90;;;19.00;46.70;;;;;;5074087;28;20043;-75
2022/09/18 07:22:57;;;;;;;3.28;0.90;;;19.10;46.70;;;;;;5075099;28;20024;-75
2022/09/18 07:25:24;;;;;;;5.07;1.00;;;19.20;46.40;;;;;;5093767;28;20037;-70
2022/09/18 07:27:51;;;;;;;8.20;1.38;;;19.40;46.00;;;;;;5094494;28;20024;-75
2022/09/18 07:30:19;;;;;;;3.00;0.80;;;19.50;45.80;;;;;;5093589;28;20024;-72
2022/09/18 07:32:45;;;;;;;4.82;1.17;;;19.50;44.30;;;;;;5067459;28;20197;-74
2022/09/18 07:35:12;;;;;;;12.38;7.68;;;19.50;45.30;;;;;;5085676;28;20012;-79
2022/09/18 07:37:38;;;;;;;3.10;1.40;;;19.70;45.60;;;;;;5055038;28;20512;-76
2022/09/18 07:40:08;;;;;;;2.30;1.10;;;19.70;45.10;;;;;;5073502;28;20100;-75
2022/09/18 07:42:35;;;;;;;3.28;1.20;;;19.80;45.40;;;;;;5074417;28;20044;-70
2022/09/18 07:45:02;;;;;;;3.38;0.95;;;19.90;44.80;;;;;;5058701;28;20035;-73
2022/09/18 07:47:28;;;;;;;2.15;0.90;;;20.00;43.90;;;;;;5094461;28;20032;-71
2022/09/18 07:49:56;;;;;;;3.60;1.00;;;19.90;45.10;;;;;;5094363;28;20388;-73
2022/09/18 07:52:22;;;;;;;4.22;1.00;;;19.80;45.50;;;;;;5093347;28;20024;-72
2022/09/18 07:54:53;;;;;;;4.15;0.95;;;19.70;45.70;;;;;;5075333;28;20043;-73
2022/09/18 07:57:22;;;;;;;2.17;0.80;;;19.70;44.50;;;;;;5094644;28;20063;-78
2022/09/18 07:59:48;;;;;;;4.25;1.10;;;19.60;44.60;;;;;;5093486;28;20213;-71
2022/09/18 08:02:14;;;;;;;3.03;0.70;;;19.50;45.60;;;;;;5092662;28;20354;-70
2022/09/18 08:04:40;;;;;;;1.90;1.02;;;19.50;45.70;;;;;;5092780;28;20028;-72
2022/09/18 08:07:05;;;;;;;2.50;0.70;;;19.50;45.60;;;;;;5092510;28;20397;-68
2022/09/18 08:09:31;;;;;;;4.55;1.15;;;19.40;45.60;;;;;;5092626;28;20035;-75
2022/09/18 08:11:57;;;;;;;2.80;0.90;;;19.40;45.80;;;;;;5085827;28;20345;-71
2022/09/18 08:14:23;;;;;;;10.15;1.23;;;19.40;45.90;;;;;;5075745;28;20110;-70
2022/09/18 08:16:49;;;;;;;3.17;1.15;;;19.40;45.20;;;;;;5075854;28;20032;-74
2022/09/18 08:19:14;;;;;;;2.45;1.10;;;19.40;45.40;;;;;;5076157;28;20452;-73
2022/09/18 08:21:40;;;;;;;4.57;1.25;;;19.40;45.40;;;;;;5078398;28;20024;-72
2022/09/18 08:24:06;;;;;;;3.15;1.20;;;19.50;45.90;;;;;;5064625;28;20029;-74
2022/09/18 08:26:37;;;;;;;3.78;1.10;;;19.50;45.50;;;;;;5076240;28;20473;-73
2022/09/18 08:29:05;;;;;;;2.78;1.00;;;19.50;44.50;;;;;;5058321;28;20024;-74
2022/09/18 08:31:30;;;;;;;1.85;0.70;;;19.70;45.50;;;;;;5076907;28;20028;-77
2022/09/18 08:33:58;;;;;;;1.67;0.70;;;19.70;44.70;;;;;;5077317;28;20037;-80
2022/09/18 08:36:25;;;;;;;3.28;0.90;;;19.70;43.70;;;;;;5077730;28;20040;-75
2022/09/18 08:38:54;;;;;;;4.97;1.33;;;19.70;44.70;;;;;;5061724;28;20017;-77
2022/09/18 08:41:29;;;;;;;3.28;0.90;;;19.70;44.60;;;;;;5080106;28;20062;-73
2022/09/18 08:44:09;;;;;;;1.80;0.85;;;19.70;44.60;;;;;;5078016;28;20031;-78
2022/09/18 08:46:45;;;;;;;2.45;0.88;;;19.70;44.00;;;;;;5076935;28;20493;-77
2022/09/18 08:49:29;;;;;;;3.05;0.88;;;19.70;45.00;;;;;;5061899;28;20029;-78
2022/09/18 08:52:13;;;;;;;4.80;0.90;;;19.80;44.00;;;;;;5076290;28;20069;-78
2022/09/18 08:54:45;;;;;;;1.67;0.70;;;19.90;44.20;;;;;;5075713;28;20079;-75
2022/09/18 08:58:06;;;;;;;1.70;0.75;;;19.90;44.90;;;;;;5076579;28;20582;-75
2022/09/18 09:00:47;;;;;;;1.83;0.73;;;19.90;43.60;;;;;;5014819;28;20064;-75
2022/09/18 09:03:38;;;;;;;5.63;0.90;;;20.00;44.70;;;;;;5070021;28;20068;-74
2022/09/18 09:06:40;;;;;;;2.75;0.77;;;20.10;43.70;;;;;;5076416;28;20045;-79
2022/09/18 09:09:22;;;;;;;2.85;0.85;;;20.10;44.00;;;;;;5078402;28;20365;-76
2022/09/18 09:12:18;;;;;;;3.63;1.25;;;20.20;43.50;;;;;;5060100;28;20485;-76
2022/09/18 09:15:08;;;;;;;4.03;1.02;;;20.30;43.70;;;;;;5079183;28;20033;-76
2022/09/18 09:18:04;;;;;;;1.95;0.93;;;20.40;43.60;;;;;;5084472;28;20354;-80
2022/09/18 09:20:49;;;;;;;1.60;0.77;;;20.60;44.80;;;;;;5032669;28;20036;-75
2022/09/18 09:23:38;;;;;;;1.58;0.80;;;20.60;42.50;;;;;;5074972;28;20067;-76
2022/09/18 09:26:20;;;;;;;2.60;0.70;;;20.70;41.80;;;;;;5057178;28;20028;-77
2022/09/18 09:29:00;;;;;;;1.90;0.90;;;20.70;42.80;;;;;;5082236;28;20491;-77
2022/09/18 09:31:34;;;;;;;4.28;0.90;;;20.80;42.90;;;;;;5095216;28;20024;-72
2022/09/18 09:34:12;;;;;;;4.18;0.68;;;20.80;42.50;;;;;;5086252;28;20119;-73
2022/09/18 09:36:41;;;;;;;6.20;1.42;;;20.90;41.00;;;;;;5065212;28;20362;-75
2022/09/18 09:39:18;;;;;;;6.82;1.60;;;21.00;42.20;;;;;;5068998;28;20029;-76
2022/09/18 09:41:48;;;;;;;4.22;1.45;;;21.10;40.50;;;;;;5078984;28;20034;-75
2022/09/18 09:44:42;;;;;;;6.68;1.13;;;21.20;41.00;;;;;;5094566;28;20024;-76
2022/09/18 09:47:43;;;;;;;2.33;0.90;;;21.30;39.40;;;;;;5094701;28;20016;-75
2022/09/18 09:50:38;;;;;;;2.78;0.93;;;21.40;36.90;;;;;;5040812;28;20038;-72
2022/09/18 09:53:08;;;;;;;3.60;1.15;;;21.50;37.40;;;;;;5076149;28;20101;-75
2022/09/18 09:55:41;;;;;;;1.55;0.70;;;21.60;39.40;;;;;;5094661;28;20024;-73
2022/09/18 09:58:29;;;;;;;2.60;1.05;;;21.60;38.40;;;;;;5076641;28;20042;-77
2022/09/18 10:01:04;;;;;;;3.63;1.10;;;21.70;37.10;;;;;;5094521;28;20016;-74
2022/09/18 10:03:50;;;;;;;4.00;0.80;;;21.80;38.10;;;;;;5094424;28;20020;-73
2022/09/18 10:06:34;;;;;;;6.38;1.40;;;21.90;38.40;;;;;;5041953;28;20046;-75
2022/09/18 10:09:12;;;;;;;2.30;0.95;;;21.90;36.60;;;;;;5094277;28;20039;-73
2022/09/18 10:11:42;;;;;;;5.28;1.10;;;22.00;36.50;;;;;;5091127;28;20027;-75
2022/09/18 10:14:22;;;;;;;4.75;1.15;;;22.10;38.30;;;;;;5093984;28;20043;-77
2022/09/18 10:16:51;;;;;;;2.80;0.80;;;22.30;37.70;;;;;;5075717;28;20048;-78
2022/09/18 10:19:19;;;;;;;2.53;0.73;;;22.40;37.40;;;;;;5084006;28;20052;-76
2022/09/18 10:21:48;;;;;;;1.77;0.98;;;22.40;36.70;;;;;;5073651;28;20028;-72
2022/09/18 10:24:33;;;;;;;2.83;0.90;;;22.50;36.70;;;;;;5073426;28;20492;-72
2022/09/18 10:27:06;;;;;;;2.85;1.23;;;22.60;35.90;;;;;;5075231;28;20071;-72
2022/09/18 10:29:37;;;;;;;1.92;0.98;;;22.70;36.70;;;;;;5073937;28;20032;-79
2022/09/18 10:32:05;;;;;;;51.85;4.88;;;22.80;36.20;;;;;;5055571;28;20099;-75
2022/09/18 10:34:43;;;;;;;2.80;0.88;;;22.90;37.20;;;;;;5072678;28;20037;-75
2022/09/18 10:37:31;;;;;;;1.88;0.80;;;23.00;37.40;;;;;;5074420;28;20035;-72
2022/09/18 10:40:00;;;;;;;10.77;2.05;;;23.00;36.20;;;;;;5073747;28;20111;-82
2022/09/18 10:42:34;;;;;;;2.97;0.82;;;23.20;36.70;;;;;;5057060;28;20028;-79
2022/09/18 10:45:04;;;;;;;2.15;1.13;;;23.20;35.90;;;;;;5073984;28;20096;-81
2022/09/18 10:47:35;;;;;;;1.42;0.80;;;23.30;36.40;;;;;;5055424;28;20028;-70
2022/09/18 10:50:10;;;;;;;4.68;1.40;;;23.40;35.90;;;;;;5073207;28;20055;-70
2022/09/18 10:52:41;;;;;;;2.17;1.10;;;23.50;36.40;;;;;;5073678;28;20036;-72
2022/09/18 10:55:25;;;;;;;2.47;1.10;;;23.60;35.80;;;;;;5073192;28;20029;-72
2022/09/18 10:58:11;;;;;;;2.53;0.93;;;23.70;34.20;;;;;;5054982;28;20107;-70
2022/09/18 11:00:59;;;;;;;1.70;0.80;;;23.80;34.20;;;;;;5072278;28;20036;-72
2022/09/18 11:04:00;;;;;;;5.43;0.98;;;24.00;33.60;;;;;;5073525;28;20025;-74
2022/09/18 11:06:29;;;;;;;2.33;0.80;;;24.00;33.20;;;;;;5072960;28;20112;-75
2022/09/18 11:09:00;;;;;;;4.90;0.90;;;24.10;33.90;;;;;;5074853;28;20387;-78
2022/09/18 11:11:34;;;;;;;2.25;0.90;;;24.20;33.40;;;;;;5076272;28;20028;-71
2022/09/18 11:14:06;;;;;;;1.40;0.65;;;24.30;32.70;;;;;;5072967;28;20028;-70
2022/09/18 11:16:44;;;;;;;2.17;1.05;;;24.30;32.10;;;;;;5072022;28;20119;-69
2022/09/18 11:19:10;;;;;;;3.05;0.90;;;24.40;31.50;;;;;;5055046;28;20078;-72
2022/09/18 11:21:55;;;;;;;0.80;0.60;;;24.40;32.60;;;;;;5073005;28;20028;-70
2022/09/18 11:24:32;;;;;;;1.42;0.60;;;24.50;31.10;;;;;;5072573;28;20024;-70
2022/09/18 11:27:21;;;;;;;6.03;1.52;;;24.60;30.30;;;;;;5072505;28;20021;-69
2022/09/18 11:29:47;;;;;;;8.85;1.55;;;24.70;30.20;;;;;;5072642;28;20511;-77
2022/09/18 11:32:19;;;;;;;1.90;1.02;;;24.80;30.60;;;;;;5073104;28;20477;-72
2022/09/18 11:34:52;;;;;;;1.77;0.80;;;24.80;29.70;;;;;;5075337;28;20036;-76
2022/09/18 11:37:27;;;;;;;2.95;0.80;;;24.90;29.00;;;;;;5072406;28;20017;-71
2022/09/18 11:39:59;;;;;;;2.25;0.68;;;25.00;28.90;;;;;;5072424;28;20024;-77
2022/09/18 11:42:26;;;;;;;2.10;0.80;;;25.00;29.20;;;;;;5072639;28;20101;-73
2022/09/18 11:44:52;;;;;;;3.53;1.35;;;25.10;29.60;;;;;;5075018;28;20024;-77
2022/09/18 11:47:35;;;;;;;3.47;1.60;;;25.20;29.40;;;;;;5067331;28;20025;-74
2022/09/18 11:50:02;;;;;;;1.65;0.80;;;25.30;29.50;;;;;;5069309;28;20077;-71
2022/09/18 11:52:39;;;;;;;2.25;0.80;;;25.40;29.50;;;;;;5086416;28;20028;-74
2022/09/18 11:55:16;;;;;;;3.38;0.90;;;25.40;29.50;;;;;;5069149;28;20028;-77
2022/09/18 11:58:02;;;;;;;1.92;0.80;;;25.50;28.70;;;;;;5070222;28;20042;-78
2022/09/18 12:01:14;;;;;;;1.50;0.70;;;25.50;28.00;;;;;;5091359;28;20036;-79
2022/09/18 12:04:07;;;;;;;1.48;0.70;;;25.60;28.30;;;;;;5091213;28;20054;-81
2022/09/18 12:06:46;;;;;;;1.88;0.80;;;25.60;28.30;;;;;;5082004;28;20048;-79
2022/09/18 12:09:22;;;;;;;2.58;1.10;;;25.70;28.20;;;;;;5092609;28;20362;-80
2022/09/18 12:12:02;;;;;;;1.60;0.80;;;25.80;27.80;;;;;;5070663;28;20032;-78
2022/09/18 12:14:42;;;;;;;1.67;0.85;;;25.80;28.20;;;;;;5097060;28;20036;-82
2022/09/18 12:17:28;;;;;;;1.63;0.80;;;25.90;28.30;;;;;;5083178;28;20488;-79
2022/09/18 12:20:02;;;;;;;3.20;0.90;;;25.90;27.80;;;;;;5096967;28;20083;-79
2022/09/18 12:22:37;;;;;;;2.92;0.95;;;26.00;28.40;;;;;;5078273;28;20037;-78
2022/09/18 12:25:12;;;;;;;3.92;0.98;;;26.00;28.10;;;;;;5096190;28;20020;-78
2022/09/18 12:28:08;;;;;;;1.98;0.80;;;26.00;27.50;;;;;;5095945;28;20020;-77
2022/09/18 12:30:42;;;;;;;0.95;0.63;;;26.10;27.70;;;;;;5095794;28;20032;-78
2022/09/18 12:33:17;;;;;;;2.00;0.80;;;26.10;27.10;;;;;;5095690;28;20020;-79
2022/09/18 12:35:54;;;;;;;2.17;1.00;;;26.10;27.40;;;;;;5083693;28;20485;-73
2022/09/18 12:38:40;;;;;;;2.33;0.85;;;26.10;27.30;;;;;;5075921;28;20032;-79
2022/09/18 12:41:24;;;;;;;5.93;1.05;;;26.10;27.50;;;;;;5057602;28;20074;-75
2022/09/18 12:44:10;;;;;;;3.65;0.65;;;26.10;28.00;;;;;;5075957;28;20105;-75
2022/09/18 12:47:14;;;;;;;1.70;0.60;;;26.10;27.80;;;;;;5075662;28;20514;-78
2022/09/18 12:50:05;;;;;;;1.70;1.02;;;26.10;27.30;;;;;;5075503;28;20083;-80
2022/09/18 12:52:52;;;;;;;1.98;0.90;;;26.10;28.00;;;;;;5075772;28;20029;-73
2022/09/18 12:55:57;;;;;;;3.47;1.20;;;26.20;28.30;;;;;;5057541;28;20025;-73
2022/09/18 12:58:22;;;;;;;1.35;0.88;;;26.30;27.90;;;;;;5023844;28;20135;-75
2022/09/18 13:00:51;;;;;;;1.25;0.80;;;26.30;28.00;;;;;;5057645;28;20469;-75
2022/09/18 13:03:34;;;;;;;1.50;0.90;;;26.40;28.40;;;;;;5075926;28;20021;-71
2022/09/18 13:06:05;;;;;;;3.90;0.90;;;26.50;27.90;;;;;;5075426;28;20550;-70
2022/09/18 13:09:17;;;;;;;3.50;0.95;;;26.40;28.10;;;;;;5060255;28;20055;-75
2022/09/18 13:12:04;;;;;;;2.95;0.88;;;26.50;27.70;;;;;;4963570;28;20019;-73
2022/09/18 13:14:59;;;;;;;1.58;0.70;;;26.50;28.30;;;;;;5075215;28;20380;-77
2022/09/18 13:17:32;;;;;;;2.47;0.73;;;26.60;27.90;;;;;;5056592;28;20028;-75
2022/09/18 13:20:32;;;;;;;3.25;0.88;;;26.50;27.90;;;;;;5075890;28;20036;-77
2022/09/18 13:22:59;;;;;;;2.88;0.90;;;26.60;27.70;;;;;;5058658;28;20025;-73